This is the latest recevied weather packets stored in our database for station/object W9GWP. If no packets are shown the sender has not sent any weather packets the latest 10 day(s).
| Time | Temp. | Humidity | Pressure | Rain* | Wind** | Luminosity | Snow |
|---|---|---|---|---|---|---|---|
| 1777826981 | 12.78° C | 67% | 1040.4 hPa | 0 mm | - | 428 W/m² | - |
| 1777826078 | 11.11° C | 72% | 1040.1 hPa | 0 mm | - | 317 W/m² | - |
| 1777825175 | 10.56° C | 78% | 1040.8 hPa | 0 mm | - | 302 W/m² | - |
| 1777824271 | 10.56° C | 77% | 1041.2 hPa | 0 mm | - | 102 W/m² | - |
| 1777823366 | 11.67° C | 67% | 1041.5 hPa | 0 mm | - | 231 W/m² | - |
| 1777822466 | 12.78° C | 63% | 1041.3 hPa | 0 mm | - | 174 W/m² | - |
| 1777821563 | 13.89° C | 58% | 1041.1 hPa | 0 mm | - | 373 W/m² | - |
| 1777820660 | 12.78° C | 60% | 1041.2 hPa | 0 mm | - | 207 W/m² | - |
| 1777819757 | 12.78° C | 61% | 1041.2 hPa | 0 mm | - | 511 W/m² | - |
| 1777818855 | 12.22° C | 62% | 1041.3 hPa | 0 mm | - | 365 W/m² | - |
| 1777817951 | 11.67° C | 62% | 1041.5 hPa | 0 mm | - | 379 W/m² | - |
| 1777817048 | 11.67° C | 60% | 1041.8 hPa | 0 mm | - | 262 W/m² | - |
| 1777816145 | 11.11° C | 61% | 1041.8 hPa | 0 mm | - | 176 W/m² | - |
| 1777815244 | 10.56° C | 61% | 1042.2 hPa | 0 mm | - | 164 W/m² | - |
| 1777814339 | 11.11° C | 59% | 1042.3 hPa | 0 mm | - | 146 W/m² | - |
| 1777813436 | 10.56° C | 60% | 1042 hPa | 0 mm | - | 192 W/m² | - |
| 1777812533 | 10° C | 62% | 1042.2 hPa | 0 mm | - | 120 W/m² | - |
| 1777811633 | 10.56° C | 60% | 1042.1 hPa | 0 mm | - | 91 W/m² | - |
| 1777810734 | 10° C | 61% | 1042 hPa | 0 mm | - | 104 W/m² | - |
| 1777809829 | 9.44° C | 61% | 1042.3 hPa | 0 mm | - | 66 W/m² | - |
| 1777808928 | 9.44° C | 61% | 1042.1 hPa | 0 mm | - | 35 W/m² | - |
| 1777808026 | 9.44° C | 60% | 1041.7 hPa | 0 mm | - | 24 W/m² | - |
| 1777807121 | 9.44° C | 60% | 1041.7 hPa | 0 mm | - | 11 W/m² | - |
| 1777806217 | 8.89° C | 60% | 1041.8 hPa | 0 mm | - | 4 W/m² | - |
| 1777805315 | 9.44° C | 59% | 1041.9 hPa | 0 mm | - | 0 W/m² | - |
* Rain latest hour (hover to see other rain measurements)
** Current wind speed in m/s (hover to see current wind gust speed)